All Spectrum Aviation - Van Nuys Airport - KVNY

HOME

Condor Squadron KVNY Webcam

Visit our Electronics Store

Condor Squadron Webcam - Van Nuys Airport - KVNY
Picture taken: Sat, 22 Feb 2020 20:52:24 -0800
YouTube Channel!    Latest Timelapse Movie    Full Size Image    Regular Size Image    

2020/02/23 03:51 KVNY 230351Z 00000KT 10SM BKN024 BKN030 BKN080 12/08 A3008 RMK AO2 SLP184 T01220083

HOME

Condor Squadron KVNY Webcam

Visit our Electronics Store